createdAt,value
2019-02-12T00:00:43.015Z,11.70
2019-02-12T00:04:49.436Z,11.73
2019-02-12T00:08:56.727Z,13.57
2019-02-12T00:13:05.717Z,14.20
2019-02-12T00:17:12.314Z,13.70
2019-02-12T00:21:18.692Z,13.33
2019-02-12T00:25:27.302Z,15.00
2019-02-12T00:29:33.700Z,9.80
2019-02-12T00:37:47.852Z,13.33
2019-02-12T00:41:55.341Z,13.37
2019-02-12T00:46:03.309Z,9.60
2019-02-12T00:50:10.477Z,8.87
2019-02-12T00:54:16.749Z,10.57
2019-02-12T00:58:25.246Z,13.60
2019-02-12T01:02:32.702Z,11.23
2019-02-12T01:06:39.328Z,13.20
2019-02-12T01:10:46.956Z,12.73
2019-02-12T01:14:53.515Z,11.47
2019-02-12T01:18:59.850Z,10.03
2019-02-12T01:23:06.053Z,10.03
2019-02-12T01:27:12.329Z,11.40
2019-02-12T01:31:23.043Z,10.40
2019-02-12T01:35:24.108Z,8.77
2019-02-12T01:39:30.621Z,7.60
2019-02-12T01:43:37.029Z,7.27
2019-02-12T01:48:04.480Z,8.03
2019-02-12T01:52:10.884Z,7.87
2019-02-12T01:56:17.699Z,8.13
2019-02-12T02:00:24.388Z,5.10
2019-02-12T02:04:32.066Z,6.57
2019-02-12T02:08:38.367Z,5.83
2019-02-12T02:12:46.214Z,6.20
2019-02-12T02:16:52.468Z,5.40
2019-02-12T02:20:59.522Z,4.20
2019-02-12T02:25:07.304Z,3.87
2019-02-12T02:29:13.829Z,4.20
2019-02-12T02:33:47.684Z,3.30
2019-02-12T02:37:56.589Z,3.43
2019-02-12T02:42:03.978Z,4.57
2019-02-12T02:46:11.239Z,3.67
2019-02-12T02:50:17.566Z,4.20
2019-02-12T02:54:27.777Z,3.67
2019-02-12T02:58:34.214Z,2.27
2019-02-12T03:06:44.351Z,2.53
2019-02-12T03:10:52.368Z,2.27
2019-02-12T03:14:58.636Z,2.67
2019-02-12T03:19:06.765Z,1.77
2019-02-12T03:23:13.056Z,2.17
2019-02-12T03:27:22.182Z,1.90
2019-02-12T03:31:28.437Z,1.50
2019-02-12T03:35:37.069Z,1.90
2019-02-12T03:39:44.299Z,1.27
2019-02-12T03:43:52.081Z,1.57
2019-02-12T03:47:58.357Z,1.13
2019-02-12T03:52:12.673Z,1.67
2019-02-12T03:56:14.248Z,1.70
2019-02-12T04:00:26.066Z,0.90
2019-02-12T04:04:34.124Z,1.43
2019-02-12T04:08:42.624Z,2.10
2019-02-12T04:12:50.184Z,1.63
2019-02-12T04:16:58.345Z,1.10
2019-02-12T04:21:06.013Z,1.47
2019-02-12T04:25:12.559Z,1.60
2019-02-12T04:29:19.506Z,1.33
2019-02-12T04:33:28.538Z,1.77
2019-02-12T04:37:36.031Z,1.80
2019-02-12T04:41:43.157Z,1.50
2019-02-12T04:45:49.434Z,1.27
2019-02-12T04:49:57.782Z,1.97
2019-02-12T04:54:05.651Z,1.47
2019-02-12T04:58:12.283Z,1.70
2019-02-12T05:02:18.601Z,1.73
2019-02-12T05:06:27.951Z,1.37
2019-02-12T05:10:36.761Z,2.10
2019-02-12T05:14:44.516Z,1.70
2019-02-12T05:18:50.839Z,1.57
2019-02-12T05:22:57.409Z,2.07
2019-02-12T05:27:04.329Z,2.00
2019-02-12T05:31:11.094Z,2.27
2019-02-12T05:35:17.364Z,2.00
2019-02-12T05:39:25.930Z,2.37
2019-02-12T05:43:32.300Z,2.10
2019-02-12T05:47:38.759Z,2.30
2019-02-12T05:51:46.102Z,4.07
2019-02-12T05:55:52.778Z,3.33
2019-02-12T06:04:09.778Z,3.47
2019-02-12T06:08:16.093Z,4.23
2019-02-12T06:12:24.546Z,3.80
2019-02-12T06:16:30.870Z,3.20
2019-02-12T06:20:38.802Z,1.50
2019-02-12T06:24:45.950Z,4.33
2019-02-12T06:28:53.137Z,4.43
2019-02-12T06:33:07.180Z,3.47
2019-02-12T06:37:09.476Z,3.87
2019-02-12T06:41:17.618Z,3.60
2019-02-12T06:45:24.569Z,2.67
2019-02-12T06:49:30.979Z,4.20
2019-02-12T06:53:37.651Z,4.43
2019-02-12T06:57:44.086Z,3.13
2019-02-12T07:01:50.599Z,3.30
2019-02-12T07:06:04.365Z,3.97
2019-02-12T07:10:23.700Z,2.90
2019-02-12T07:14:45.848Z,3.60
2019-02-12T07:19:23.604Z,3.40
2019-02-12T07:23:59.754Z,2.60
2019-02-12T07:28:28.768Z,2.70
2019-02-12T07:33:03.438Z,3.00
2019-02-12T07:37:26.230Z,2.70
2019-02-12T07:41:45.796Z,3.00
2019-02-12T07:46:16.210Z,1.63
2019-02-12T07:50:24.196Z,3.70
2019-02-12T07:54:45.298Z,2.43
2019-02-12T07:59:26.191Z,2.30
2019-02-12T08:03:46.499Z,2.53
2019-02-12T08:08:05.894Z,2.60
2019-02-12T08:13:03.549Z,2.40
2019-02-12T08:17:49.242Z,2.07
2019-02-12T08:22:34.523Z,2.40
2019-02-12T08:26:44.362Z,1.67
2019-02-12T08:31:23.853Z,2.60
2019-02-12T08:35:44.453Z,2.07
2019-02-12T08:40:15.263Z,2.60
2019-02-12T08:44:25.892Z,2.60
2019-02-12T08:48:45.279Z,2.60
2019-02-12T08:53:06.722Z,2.50
2019-02-12T08:57:23.117Z,1.90
2019-02-12T09:01:45.977Z,2.40
2019-02-12T09:06:06.869Z,1.77
2019-02-12T09:10:35.216Z,1.70
2019-02-12T09:15:07.413Z,2.10
2019-02-12T09:19:24.547Z,1.60
2019-02-12T09:23:44.939Z,2.10
2019-02-12T09:28:04.883Z,1.90
2019-02-12T09:32:24.905Z,1.83
2019-02-12T09:36:44.599Z,1.90
2019-02-12T09:41:05.412Z,1.83
2019-02-12T09:45:39.128Z,1.80
2019-02-12T09:50:38.063Z,1.90
2019-02-12T09:59:44.598Z,2.17
2019-02-12T10:04:04.389Z,2.43
2019-02-12T10:08:38.123Z,1.87
2019-02-12T10:13:00.735Z,2.10
2019-02-12T10:17:47.846Z,1.47
2019-02-12T10:22:03.763Z,2.07
2019-02-12T10:26:14.565Z,2.97
2019-02-12T10:30:24.426Z,2.40
2019-02-12T10:34:31.636Z,2.30
2019-02-12T10:38:37.945Z,2.13
2019-02-12T10:42:46.208Z,2.33
2019-02-12T10:46:55.114Z,1.93
2019-02-12T10:51:03.314Z,1.67
2019-02-12T10:55:09.665Z,1.57
2019-02-12T10:59:17.073Z,1.60
2019-02-12T11:03:24.139Z,1.90
2019-02-12T11:07:30.698Z,1.90
2019-02-12T11:11:36.972Z,1.13
2019-02-12T11:15:45.279Z,1.63
2019-02-12T11:19:54.938Z,1.40
2019-02-12T11:24:05.162Z,2.33
2019-02-12T11:28:11.438Z,2.50
2019-02-12T11:32:18.428Z,2.17
2019-02-12T11:36:27.551Z,2.00
2019-02-12T11:40:34.527Z,1.73
2019-02-12T11:44:42.704Z,2.23
2019-02-12T11:48:51.720Z,1.77
2019-02-12T11:52:58.026Z,2.17
2019-02-12T11:57:05.822Z,1.70
2019-02-12T12:01:16.988Z,1.83
2019-02-12T12:05:23.421Z,2.50
2019-02-12T12:09:29.749Z,2.07
2019-02-12T12:13:36.739Z,1.90
2019-02-12T12:17:46.608Z,2.20
2019-02-12T12:21:53.459Z,2.93
2019-02-12T12:25:59.740Z,2.10
2019-02-12T12:30:11.239Z,1.93
2019-02-12T12:34:17.868Z,2.90
2019-02-12T12:38:23.790Z,3.23
2019-02-12T12:42:31.974Z,2.83
2019-02-12T12:46:39.547Z,2.50
2019-02-12T12:50:47.483Z,2.80
2019-02-12T12:54:59.890Z,3.03
2019-02-12T12:59:04.242Z,2.53
2019-02-12T13:03:32.706Z,3.47
2019-02-12T13:07:38.995Z,2.50
2019-02-12T13:11:47.675Z,2.80
2019-02-12T13:15:55.558Z,2.97
2019-02-12T13:20:03.657Z,2.77
2019-02-12T13:24:16.176Z,4.27
2019-02-12T13:28:23.461Z,3.13
2019-02-12T13:32:29.713Z,3.80
2019-02-12T13:36:36.731Z,3.73
2019-02-12T13:40:43.389Z,3.60
2019-02-12T13:44:55.118Z,3.53
2019-02-12T13:49:01.393Z,3.07
2019-02-12T13:53:13.706Z,4.67
2019-02-12T13:57:20.017Z,3.83
2019-02-12T14:05:35.052Z,2.60
2019-02-12T14:09:41.728Z,2.57
2019-02-12T14:13:49.247Z,3.90
2019-02-12T14:17:56.156Z,3.97
2019-02-12T14:22:02.681Z,2.77
2019-02-12T14:26:10.116Z,3.53
2019-02-12T14:30:17.771Z,3.97
2019-02-12T14:34:24.298Z,3.57
2019-02-12T14:38:49.622Z,4.13
2019-02-12T14:42:57.255Z,3.10
2019-02-12T14:47:03.660Z,3.83
2019-02-12T14:51:11.674Z,3.27
2019-02-12T14:55:19.956Z,3.13
2019-02-12T14:59:28.442Z,3.50
2019-02-12T15:03:34.783Z,3.20
2019-02-12T15:07:41.423Z,3.50
2019-02-12T15:11:51.253Z,3.17
2019-02-12T15:15:59.478Z,3.87
2019-02-12T15:20:09.953Z,2.87
2019-02-12T15:24:16.670Z,3.63
2019-02-12T15:28:24.703Z,2.90
2019-02-12T15:32:53.167Z,3.63
2019-02-12T15:36:59.489Z,2.33
2019-02-12T15:41:08.040Z,2.80
2019-02-12T15:45:15.082Z,2.67
2019-02-12T15:49:21.783Z,3.47
2019-02-12T15:53:29.489Z,3.10
2019-02-12T15:57:40.291Z,3.47
2019-02-12T16:05:57.203Z,3.03
2019-02-12T16:10:05.341Z,3.80
2019-02-12T16:14:13.087Z,3.57
2019-02-12T16:18:21.362Z,3.17
2019-02-12T16:22:30.831Z,3.63
2019-02-12T16:26:38.160Z,3.63
2019-02-12T16:30:44.638Z,4.13
2019-02-12T16:35:12.599Z,4.00
2019-02-12T16:39:20.789Z,4.70
2019-02-12T16:43:30.403Z,3.40
2019-02-12T16:47:37.142Z,3.70
2019-02-12T16:51:45.303Z,2.53
2019-02-12T16:55:52.343Z,3.17
2019-02-12T16:59:59.418Z,5.27
2019-02-12T17:04:11.122Z,4.37
2019-02-12T17:08:17.535Z,4.40
2019-02-12T17:12:27.631Z,4.70
2019-02-12T17:16:34.044Z,3.80
2019-02-12T17:20:40.834Z,4.33
2019-02-12T17:24:48.737Z,3.10
2019-02-12T17:28:56.279Z,3.37
2019-02-12T17:33:03.942Z,3.10
2019-02-12T17:37:14.475Z,5.23
2019-02-12T17:41:21.856Z,3.73
2019-02-12T17:45:31.814Z,2.67
2019-02-12T17:49:38.181Z,2.63
2019-02-12T17:53:45.474Z,2.30
2019-02-12T17:58:31.705Z,2.17
2019-02-12T18:02:41.589Z,2.27
2019-02-12T18:06:49.828Z,3.63
2019-02-12T18:10:56.712Z,3.50
2019-02-12T18:15:03.094Z,4.00
2019-02-12T18:19:10.287Z,3.40
2019-02-12T18:23:16.724Z,4.17
2019-02-12T18:27:23.439Z,4.93
2019-02-12T18:31:31.551Z,4.77
2019-02-12T18:35:39.626Z,4.40
2019-02-12T18:39:48.062Z,4.87
2019-02-12T18:43:56.228Z,5.43
2019-02-12T18:48:02.673Z,4.63
2019-02-12T18:52:11.089Z,5.23
2019-02-12T18:56:18.371Z,5.83
2019-02-12T19:00:25.138Z,8.00
2019-02-12T19:04:34.694Z,9.20
2019-02-12T19:08:42.407Z,8.17
2019-02-12T19:12:51.008Z,9.20
2019-02-12T19:17:00.608Z,9.30
2019-02-12T19:21:08.663Z,7.83
2019-02-12T19:25:16.597Z,10.70
2019-02-12T19:29:22.965Z,11.03
2019-02-12T19:33:30.130Z,10.67
2019-02-12T19:37:36.453Z,11.07
2019-02-12T19:41:44.968Z,11.03
2019-02-12T19:45:51.986Z,12.40
2019-02-12T19:49:59.737Z,13.70
2019-02-12T19:54:07.968Z,12.27
2019-02-12T19:58:16.336Z,12.87
2019-02-12T20:02:22.647Z,11.47
2019-02-12T20:06:28.809Z,12.33
2019-02-12T20:10:35.129Z,13.93
2019-02-12T20:14:42.621Z,15.37
2019-02-12T20:19:11.701Z,14.43
2019-02-12T20:23:18.256Z,13.27
2019-02-12T20:31:36.040Z,11.27
2019-02-12T20:35:42.393Z,11.83
2019-02-12T20:39:51.328Z,9.50
2019-02-12T20:43:57.702Z,13.63
2019-02-12T20:48:04.314Z,10.70
2019-02-12T20:52:11.500Z,11.73
2019-02-12T20:56:18.071Z,11.30
2019-02-12T21:00:28.539Z,13.73
2019-02-12T21:04:36.676Z,12.50
2019-02-12T21:08:43.752Z,13.77
2019-02-12T21:12:53.530Z,13.50
2019-02-12T21:16:59.902Z,12.77
2019-02-12T21:21:10.792Z,13.40
2019-02-12T21:25:17.263Z,13.80
2019-02-12T21:29:23.857Z,15.30
2019-02-12T21:33:32.367Z,14.53
2019-02-12T21:37:40.120Z,16.47
2019-02-12T21:45:55.921Z,15.13
2019-02-12T21:50:02.773Z,14.33
2019-02-12T21:54:10.396Z,14.00
2019-02-12T21:58:16.721Z,13.50
2019-02-12T22:02:23.351Z,12.77
2019-02-12T22:06:29.981Z,13.67
2019-02-12T22:10:46.210Z,12.80
2019-02-12T22:14:49.517Z,12.57
2019-02-12T22:18:59.546Z,13.67
2019-02-12T22:23:08.572Z,14.77
2019-02-12T22:27:15.382Z,14.63
2019-02-12T22:31:42.621Z,13.80
2019-02-12T22:35:49.394Z,16.20
2019-02-12T22:39:55.702Z,10.40
2019-02-12T22:44:05.050Z,13.73
2019-02-12T22:48:14.486Z,19.50
2019-02-12T22:52:41.989Z,16.17
2019-02-12T22:56:48.366Z,17.40
2019-02-12T23:01:02.484Z,14.40
2019-02-12T23:05:10.401Z,13.27
2019-02-12T23:09:19.310Z,12.83
2019-02-12T23:13:27.061Z,12.17
2019-02-12T23:17:35.097Z,10.90
2019-02-12T23:21:41.515Z,9.77
2019-02-12T23:25:50.255Z,9.33
2019-02-12T23:34:05.635Z,10.50
2019-02-12T23:38:12.025Z,10.03
2019-02-12T23:42:19.827Z,12.03
2019-02-12T23:46:26.167Z,10.67
2019-02-12T23:50:33.658Z,7.43
2019-02-12T23:55:21.280Z,9.63
2019-02-12T23:59:27.929Z,7.73
